Time;durP1;ratioP1;P1;durP2;ratioP2;P2;SDS_P1;SDS_P2;PMS_P1;PMS_P2;Temp;Humidity;BMP_temperature;BMP_pressure;BME280_temperature;BME280_humidity;BME280_pressure;Samples;Min_cycle;Max_cycle;Signal;HPM_P1;HPM_P2
2022/05/23 10:37:52;;;;;;;2.35;1.85;;;;;;;18.72;43.13;98621.19;1710519;81;21164;-73
2022/05/23 10:45:23;;;;;;;3.42;1.72;;;;;;;19.09;42.09;98613.47;1703721;81;20999;-75
2022/05/23 10:48:07;;;;;;;2.67;1.87;;;;;;;19.40;41.27;98616.30;1706742;80;20974;-75
2022/05/23 10:51:21;;;;;;;6.53;1.82;;;;;;;19.50;40.61;98611.90;1729161;80;21086;-73
2022/05/23 10:54:38;;;;;;;4.85;2.02;;;;;;;19.56;39.93;98613.16;1727487;81;21086;-71
2022/05/23 10:57:36;;;;;;;3.58;2.00;;;;;;;19.42;39.32;98617.00;1713729;81;21052;-72
2022/05/23 11:00:14;;;;;;;3.58;1.62;;;;;;;19.14;39.31;98610.78;1678077;80;21169;-72
2022/05/23 11:03:03;;;;;;;2.52;2.02;;;;;;;18.79;40.15;98623.61;1727807;81;21324;-72
2022/05/23 11:06:03;;;;;;;2.02;1.87;;;;;;;18.36;41.79;98622.58;1704574;81;21586;-71
2022/05/23 11:08:38;;;;;;;5.17;2.05;;;;;;;17.82;42.76;98629.78;1698376;82;22040;-71
2022/05/23 11:11:31;;;;;;;1.98;1.82;;;;;;;17.40;44.51;98634.64;1693767;81;21134;-69
2022/05/23 11:14:09;;;;;;;7.45;2.15;;;;;;;17.17;45.87;98629.98;1689592;81;21058;-70
2022/05/23 11:17:26;;;;;;;3.80;2.10;;;;;;;17.06;46.24;98633.95;1714613;81;21191;-71
2022/05/23 11:20:08;;;;;;;4.95;2.12;;;;;;;17.02;47.25;98637.30;1699462;81;21215;-70
2022/05/23 11:22:43;;;;;;;2.42;1.82;;;;;;;17.04;47.85;98632.76;1701973;81;20987;-69
2022/05/23 11:25:30;;;;;;;2.00;1.80;;;;;;;17.09;47.88;98631.92;1715654;79;21468;-69
2022/05/23 11:34:22;;;;;;;4.33;1.75;;;;;;;17.67;45.90;98617.09;1711092;81;21102;-70
2022/05/23 11:37:00;;;;;;;2.20;1.70;;;;;;;17.88;45.94;98616.13;1642335;85;21058;-70
2022/05/23 11:39:56;;;;;;;2.40;1.62;;;;;;;18.08;45.08;98611.79;1675442;82;21555;-69
2022/05/23 11:42:29;;;;;;;3.30;1.90;;;;;;;18.35;44.96;98610.38;1705263;82;21620;-68
2022/05/23 11:45:56;;;;;;;2.62;2.00;;;;;;;18.77;43.75;98611.09;1697992;81;21773;-70
2022/05/23 11:47:47;;;;;;;4.20;2.05;;;;;;;19.12;42.65;98603.98;1715634;81;20988;-70
2022/05/23 11:50:19;;;;;;;;;;;;;;;19.44;40.89;98612.91;1716802;82;21684;-68
2022/05/23 11:53:05;;;;;;;3.25;1.30;;;;;;;19.54;38.66;98598.78;1727380;82;20190;-67
2022/05/23 11:56:00;;;;;;;1.85;1.57;;;;;;;19.59;38.45;98603.61;1732150;80;20994;-69
2022/05/23 11:58:45;;;;;;;3.15;1.32;;;;;;;19.70;37.70;98603.95;1702843;80;21151;-69
2022/05/23 12:01:25;;;;;;;1.67;1.42;;;;;;;19.72;36.27;98604.16;1727951;80;21243;-69
2022/05/23 12:06:41;;;;;;;3.12;1.27;;;;;;;19.56;35.74;98618.42;1703508;82;21006;-69
2022/05/23 12:09:18;;;;;;;4.28;1.50;;;;;;;19.47;34.83;98617.91;1696305;80;21134;-69
2022/05/23 12:11:53;;;;;;;1.50;1.37;;;;;;;19.36;35.15;98628.13;1695727;82;22050;-70
2022/05/23 12:14:30;;;;;;;2.35;1.30;;;;;;;19.18;35.12;98622.69;1701061;82;21081;-69
2022/05/23 12:17:10;;;;;;;1.30;1.12;;;;;;;19.01;35.15;98620.73;1707822;81;21577;-69
2022/05/23 12:19:46;;;;;;;4.97;1.60;;;;;;;18.90;34.53;98624.83;1713971;79;21101;-71
2022/05/23 12:22:23;;;;;;;4.00;1.70;;;;;;;18.83;35.67;98627.16;1706951;81;21065;-70
2022/05/23 12:25:10;;;;;;;3.47;2.58;;;;;;;18.85;35.37;98633.13;1664167;81;21505;-69
2022/05/23 12:27:52;;;;;;;2.35;2.02;;;;;;;18.81;36.24;98627.78;1730061;80;21053;-69
2022/05/23 12:30:36;;;;;;;3.42;1.60;;;;;;;18.74;36.99;98623.20;1694940;81;21096;-70
2022/05/23 12:33:22;;;;;;;5.25;2.87;;;;;;;18.71;36.88;98620.84;1707245;81;21066;-70
2022/05/23 12:35:59;;;;;;;4.42;1.72;;;;;;;18.66;37.00;98619.92;1700175;80;21086;-70
2022/05/23 12:39:03;;;;;;;8.30;1.87;;;;;;;18.59;36.20;98618.30;1694933;80;21176;-71
2022/05/23 12:41:48;;;;;;;2.40;1.47;;;;;;;18.60;36.80;98613.87;1716090;80;21150;-70
2022/05/23 12:45:11;;;;;;;6.28;1.82;;;;;;;18.65;35.65;98618.25;1697619;82;21702;-70
2022/05/23 12:48:04;;;;;;;2.60;1.60;;;;;;;18.66;35.92;98614.66;1695033;81;21495;-70
2022/05/23 12:50:54;;;;;;;4.45;1.67;;;;;;;18.63;35.43;98621.98;1693313;80;21206;-69
2022/05/23 12:53:47;;;;;;;3.27;1.42;;;;;;;18.55;36.33;98618.22;1694847;81;21561;-69
2022/05/23 12:56:39;;;;;;;3.40;1.67;;;;;;;18.56;36.30;98621.68;1724672;81;21074;-69
2022/05/23 12:59:25;;;;;;;2.55;1.50;;;;;;;18.70;36.23;98616.54;1732939;80;21012;-70
2022/05/23 13:01:57;;;;;;;3.83;1.40;;;;;;;18.81;36.03;98619.05;1706893;80;21239;-69
2022/05/23 13:04:28;;;;;;;4.33;1.73;;;;;;;18.80;35.41;98614.26;1721975;80;21429;-70
2022/05/23 13:07:12;;;;;;;2.75;1.45;;;;;;;18.78;35.39;98615.39;1744164;80;48551;-70
2022/05/23 13:09:46;;;;;;;4.80;1.70;;;;;;;18.72;34.99;98617.23;1716837;80;21038;-69
2022/05/23 13:12:21;;;;;;;2.58;1.30;;;;;;;18.67;34.69;98610.22;1713178;80;21110;-70
2022/05/23 13:15:00;;;;;;;2.83;1.05;;;;;;;18.65;34.71;98609.03;1707375;81;21093;-67
2022/05/23 13:17:42;;;;;;;5.62;1.47;;;;;;;18.63;34.89;98612.28;1701092;81;21099;-69
2022/05/23 13:23:19;;;;;;;2.75;1.22;;;;;;;18.66;36.32;98606.75;1709261;81;20959;-69
2022/05/23 13:25:47;;;;;;;2.67;1.32;;;;;;;18.73;36.83;98609.69;1690853;82;21106;-68
2022/05/23 13:28:15;;;;;;;2.67;1.62;;;;;;;18.87;36.33;98607.97;1749340;80;21063;-68
2022/05/23 13:30:51;;;;;;;4.85;1.90;;;;;;;19.00;36.00;98605.89;1700082;81;21051;-69
2022/05/23 13:33:32;;;;;;;2.42;1.40;;;;;;;19.07;36.12;98606.19;1712179;81;21225;-67
2022/05/23 13:36:00;;;;;;;3.70;1.40;;;;;;;19.04;36.51;98604.66;1708284;81;21455;-69
2022/05/23 13:38:30;;;;;;;2.75;1.30;;;;;;;19.00;36.48;98601.11;1696327;81;21014;-70
2022/05/23 13:41:02;;;;;;;3.80;1.27;;;;;;;18.97;36.22;98606.68;1698841;81;21081;-67
2022/05/23 13:43:45;;;;;;;3.65;1.30;;;;;;;18.91;36.41;98600.14;1696791;82;21023;-70
2022/05/23 13:46:23;;;;;;;4.60;1.20;;;;;;;18.81;36.06;98604.55;1731632;80;21549;-67
2022/05/23 13:48:58;;;;;;;2.72;1.40;;;;;;;18.65;37.15;98614.30;1711303;81;20991;-69
2022/05/23 13:51:32;;;;;;;1.37;1.27;;;;;;;18.57;37.52;98612.33;1707992;80;21482;-69
2022/05/23 13:54:12;;;;;;;2.15;1.60;;;;;;;18.57;37.47;98619.40;1692868;80;21042;-66
2022/05/23 13:56:43;;;;;;;3.37;1.42;;;;;;;18.54;37.57;98622.30;1712255;83;21497;-68
2022/05/23 13:59:17;;;;;;;4.12;1.67;;;;;;;18.47;37.92;98619.36;1660372;85;21931;-68
2022/05/23 14:01:49;;;;;;;3.80;1.57;;;;;;;18.50;38.04;98626.98;1663908;83;20968;-68
2022/05/23 14:04:20;;;;;;;2.42;1.45;;;;;;;18.48;37.95;98616.23;1677305;82;21042;-67
2022/05/23 14:06:52;;;;;;;7.97;1.85;;;;;;;18.38;37.98;98622.80;1681282;82;21100;-67
2022/05/23 14:09:21;;;;;;;1.82;1.32;;;;;;;18.28;38.45;98621.08;1692029;82;21044;-67
2022/05/23 14:11:51;;;;;;;2.02;1.50;;;;;;;18.19;38.89;98620.06;1684771;83;21168;-68
2022/05/23 14:14:28;;;;;;;3.00;1.55;;;;;;;18.14;39.12;98625.75;1693860;83;21047;-68
2022/05/23 14:17:05;;;;;;;4.15;1.65;;;;;;;18.12;38.83;98626.36;1677216;83;21131;-66
2022/05/23 14:19:43;;;;;;;3.75;1.40;;;;;;;18.09;38.45;98627.09;1682908;83;21025;-67
2022/05/23 14:22:16;;;;;;;7.15;1.47;;;;;;;18.06;38.96;98635.25;1680672;83;21025;-67
2022/05/23 14:24:46;;;;;;;3.55;1.45;;;;;;;18.03;39.24;98634.19;1702078;83;21697;-68
2022/05/23 14:27:26;;;;;;;2.50;1.40;;;;;;;17.98;38.35;98635.92;1708107;82;21011;-67
2022/05/23 14:30:28;;;;;;;3.17;1.75;;;;;;;17.87;38.84;98632.87;1722138;82;21023;-69
2022/05/23 14:33:07;;;;;;;2.25;1.40;;;;;;;17.84;39.24;98631.80;1715966;83;21081;-69
2022/05/23 14:35:39;;;;;;;3.10;1.82;;;;;;;17.88;39.01;98626.64;1709889;83;20951;-68
2022/05/23 14:38:10;;;;;;;3.98;1.60;;;;;;;17.93;39.25;98631.52;1681050;85;21378;-69
2022/05/23 14:40:40;;;;;;;4.58;1.80;;;;;;;18.04;39.34;98630.59;1679016;83;21542;-67
2022/05/23 14:43:11;;;;;;;1.90;1.70;;;;;;;18.12;39.14;98635.57;1706329;83;21003;-67
2022/05/23 14:45:54;;;;;;;3.92;1.30;;;;;;;18.20;37.57;98627.83;1650296;85;21001;-68
2022/05/23 14:48:30;;;;;;;2.45;1.52;;;;;;;18.19;37.01;98634.06;1677334;83;20978;-68
2022/05/23 14:51:13;;;;;;;4.65;1.60;;;;;;;18.17;36.26;98626.80;1697051;83;21782;-69
2022/05/23 14:56:37;;;;;;;4.25;1.67;;;;;;;18.15;36.10;98631.84;1701747;83;21026;-67
2022/05/23 15:01:59;;;;;;;2.50;1.40;;;;;;;18.22;36.83;98629.02;1683186;83;21271;-69
2022/05/23 15:04:28;;;;;;;5.10;1.52;;;;;;;18.25;35.04;98628.28;1705884;82;21823;-67
2022/05/23 15:06:59;;;;;;;4.78;1.70;;;;;;;18.29;34.16;98634.59;1709721;83;21545;-67
2022/05/23 15:09:26;;;;;;;2.02;1.42;;;;;;;18.28;35.09;98633.77;1693545;83;21093;-68
2022/05/23 15:11:54;;;;;;;1.67;1.50;;;;;;;18.32;35.27;98633.02;1638313;85;21035;-68
2022/05/23 15:14:22;;;;;;;1.87;1.55;;;;;;;18.33;35.60;98637.33;1672411;85;20957;-67
2022/05/23 15:16:49;;;;;;;2.33;1.45;;;;;;;18.31;34.79;98639.25;1681236;85;21155;-67
2022/05/23 15:19:18;;;;;;;4.58;1.57;;;;;;;18.24;34.95;98642.88;1661636;85;20945;-68
2022/05/23 15:21:47;;;;;;;4.10;1.60;;;;;;;18.18;35.28;98639.48;1673145;85;21075;-67
2022/05/23 15:24:14;;;;;;;5.40;1.60;;;;;;;18.13;35.49;98645.61;1677324;83;21463;-67
2022/05/23 15:26:45;;;;;;;8.33;2.10;;;;;;;18.10;36.27;98641.92;1677950;85;20940;-68
2022/05/23 15:29:13;;;;;;;2.15;1.52;;;;;;;18.04;37.26;98643.27;1657577;84;21179;-67
2022/05/23 15:31:50;;;;;;;2.87;1.70;;;;;;;17.98;39.06;98641.66;1711283;82;20963;-67
2022/05/23 15:34:19;;;;;;;4.50;1.70;;;;;;;17.88;39.30;98641.59;1717906;82;21034;-67
2022/05/23 15:36:46;;;;;;;2.17;1.60;;;;;;;17.75;39.63;98643.12;1687521;83;21009;-67
2022/05/23 15:39:13;;;;;;;3.80;1.85;;;;;;;17.63;39.87;98646.72;1716313;82;20998;-67
2022/05/23 15:41:43;;;;;;;4.47;1.65;;;;;;;17.54;39.70;98654.08;1690818;83;21212;-67
2022/05/23 15:44:16;;;;;;;3.27;1.40;;;;;;;17.44;39.88;98654.47;1721090;82;21568;-68
2022/05/23 15:46:45;;;;;;;10.18;1.90;;;;;;;17.35;40.13;98656.08;1717303;83;21029;-67
2022/05/23 15:49:12;;;;;;;4.10;1.42;;;;;;;17.28;40.29;98655.38;1680791;83;21074;-68
2022/05/23 15:51:40;;;;;;;5.25;1.67;;;;;;;17.21;40.41;98650.61;1722798;82;21378;-68
2022/05/23 15:54:07;;;;;;;9.13;1.70;;;;;;;17.15;40.87;98655.08;1713255;82;21123;-69
2022/05/23 15:56:34;;;;;;;2.25;1.47;;;;;;;17.10;41.46;98657.23;1709874;82;21097;-68
2022/05/23 15:59:02;;;;;;;6.08;1.55;;;;;;;17.05;41.16;98667.27;1715598;83;20963;-68
2022/05/23 16:01:30;;;;;;;5.12;1.50;;;;;;;16.99;41.08;98656.41;1712668;82;21415;-68
2022/05/23 16:03:58;;;;;;;2.70;1.42;;;;;;;16.95;41.16;98666.84;1713479;83;21076;-68
2022/05/23 16:06:25;;;;;;;2.72;1.90;;;;;;;16.86;40.40;98663.97;1714954;82;21245;-68
2022/05/23 16:08:51;;;;;;;4.35;1.80;;;;;;;16.80;41.04;98670.19;1725654;81;21537;-67
2022/05/23 16:11:28;;;;;;;2.27;1.60;;;;;;;16.73;40.38;98665.08;1713067;82;21073;-69
2022/05/23 16:13:58;;;;;;;3.37;1.82;;;;;;;16.68;40.94;98673.80;1712480;82;21435;-67
2022/05/23 16:16:25;;;;;;;4.65;2.25;;;;;;;16.62;41.20;98670.30;1718236;81;21750;-67
2022/05/23 16:18:54;;;;;;;4.67;1.60;;;;;;;16.60;41.37;98680.08;1702597;82;21875;-67
2022/05/23 16:21:23;;;;;;;1.67;1.50;;;;;;;16.55;41.25;98680.47;1710042;83;21042;-67
2022/05/23 16:23:50;;;;;;;5.62;1.47;;;;;;;16.52;41.58;98684.16;1699520;83;21036;-67
2022/05/23 16:26:16;;;;;;;2.52;1.55;;;;;;;16.50;40.89;98689.17;1714025;83;20990;-68
2022/05/23 16:28:43;;;;;;;2.20;1.50;;;;;;;16.42;41.36;98691.06;1707549;82;21513;-69
2022/05/23 16:31:11;;;;;;;2.15;1.42;;;;;;;16.34;41.34;98696.09;1703694;82;21143;-67
2022/05/23 16:36:38;;;;;;;2.75;1.30;;;;;;;16.24;41.34;98696.91;1707715;83;20956;-67
2022/05/23 16:39:12;;;;;;;3.20;1.80;;;;;;;16.15;41.39;98698.45;1683785;83;21081;-68
2022/05/23 16:41:42;;;;;;;2.33;1.65;;;;;;;16.10;42.16;98704.53;1697611;83;21112;-68
2022/05/23 16:44:10;;;;;;;2.05;1.60;;;;;;;16.08;42.42;98700.70;1699398;83;21108;-68
2022/05/23 16:46:38;;;;;;;3.37;1.57;;;;;;;16.06;42.57;98705.70;1673767;85;21576;-68
2022/05/23 16:49:05;;;;;;;7.03;1.62;;;;;;;16.03;42.83;98704.62;1709822;83;21027;-67
2022/05/23 16:51:33;;;;;;;4.65;1.62;;;;;;;16.02;43.00;98702.47;1676557;84;21484;-68
2022/05/23 16:54:00;;;;;;;1.95;1.40;;;;;;;16.00;42.94;98703.53;1689860;84;20982;-69
2022/05/23 16:56:27;;;;;;;5.83;1.60;;;;;;;15.97;43.14;98706.42;1658626;84;21781;-68
2022/05/23 16:58:54;;;;;;;2.85;1.60;;;;;;;15.94;43.26;98700.92;1654944;85;21069;-68
2022/05/23 17:01:22;;;;;;;2.80;1.55;;;;;;;15.90;43.31;98706.03;1649753;86;20985;-68
2022/05/23 17:03:55;;;;;;;3.35;1.50;;;;;;;15.86;43.08;98712.45;1650566;86;21033;-68
2022/05/23 17:06:23;;;;;;;2.58;1.30;;;;;;;15.81;42.93;98715.41;1742183;82;21136;-68
2022/05/23 17:08:50;;;;;;;1.42;1.30;;;;;;;15.78;42.75;98713.52;1731438;82;21169;-68
2022/05/23 17:11:17;;;;;;;2.42;1.30;;;;;;;15.72;42.70;98707.41;1734833;81;21406;-68
2022/05/23 17:13:44;;;;;;;2.85;1.40;;;;;;;15.65;42.87;98708.81;1715624;82;21021;-69
2022/05/23 17:16:12;;;;;;;2.37;1.50;;;;;;;15.57;42.71;98717.73;1737545;82;20998;-68
2022/05/23 17:18:38;;;;;;;4.78;2.27;;;;;;;15.48;42.82;98717.89;1696792;82;21002;-68
2022/05/23 17:21:06;;;;;;;4.37;2.33;;;;;;;15.40;43.26;98721.53;1736886;82;21198;-68
2022/05/23 17:23:34;;;;;;;6.30;3.25;;;;;;;15.31;43.63;98722.22;1742307;82;21050;-68
2022/05/23 17:26:06;;;;;;;4.22;3.27;;;;;;;15.23;43.88;98716.68;1717001;82;20958;-68
2022/05/23 17:28:35;;;;;;;4.30;2.33;;;;;;;15.13;43.83;98723.08;1669138;84;21071;-68
2022/05/23 17:31:02;;;;;;;3.60;2.05;;;;;;;14.94;43.71;98717.48;1728153;82;21427;-66
2022/05/23 17:33:29;;;;;;;5.72;1.77;;;;;;;14.94;43.71;98717.48;1722534;83;21407;-66
2022/05/23 17:35:57;;;;;;;2.35;2.00;;;;;;;14.86;44.57;98721.94;1701644;83;20990;-66
2022/05/23 17:38:23;;;;;;;2.92;2.15;;;;;;;14.78;45.19;98722.97;1728345;83;21028;-67
2022/05/23 17:40:50;;;;;;;3.60;2.00;;;;;;;14.73;45.40;98731.14;1725291;83;20966;-67
2022/05/23 17:43:17;;;;;;;3.15;1.80;;;;;;;14.60;45.57;98729.46;1714091;82;20959;-67
2022/05/23 17:45:43;;;;;;;1.60;1.50;;;;;;;14.60;45.57;98729.46;1721046;83;21230;-67
2022/05/23 17:48:12;;;;;;;3.12;1.50;;;;;;;14.51;45.23;98732.27;1721075;83;21145;-67
2022/05/23 17:50:39;;;;;;;8.63;2.75;;;;;;;14.42;45.22;98735.50;1707121;83;21133;-67
2022/05/23 17:53:07;;;;;;;6.67;2.30;;;;;;;14.30;45.38;98734.54;1704855;83;20973;-67
2022/05/23 17:55:33;;;;;;;2.45;1.70;;;;;;;14.21;45.67;98739.07;1730451;82;20987;-69
2022/05/23 17:58:00;;;;;;;2.58;2.05;;;;;;;14.12;45.92;98745.78;1722709;83;21136;-67
2022/05/23 18:00:27;;;;;;;3.95;2.08;;;;;;;14.02;46.16;98751.24;1718330;83;20994;-67
2022/05/23 18:02:56;;;;;;;3.50;1.50;;;;;;;13.94;46.46;98744.88;1722658;82;20969;-67
2022/05/23 18:05:25;;;;;;;4.50;1.50;;;;;;;13.87;46.70;98752.27;1718690;83;21095;-68
2022/05/23 18:07:58;;;;;;;2.15;1.92;;;;;;;13.80;46.85;98757.52;1721592;83;21161;-67
2022/05/23 18:10:24;;;;;;;3.27;1.77;;;;;;;13.73;47.20;98758.89;1695161;83;21209;-67
2022/05/23 18:12:51;;;;;;;3.37;1.45;;;;;;;13.66;47.41;98762.36;1720446;83;21603;-67
2022/05/23 18:20:50;;;;;;;2.37;1.80;;;;;;;13.42;48.12;98775.69;1720617;82;20999;-68
2022/05/23 18:23:16;;;;;;;2.67;1.42;;;;;;;13.31;48.50;98780.31;1719023;82;21479;-67
2022/05/23 18:25:44;;;;;;;4.22;1.50;;;;;;;13.25;48.95;98783.77;1726289;82;21518;-68
2022/05/23 18:28:11;;;;;;;3.55;1.75;;;;;;;13.18;49.47;98787.25;1717370;83;21046;-67
2022/05/23 18:30:40;;;;;;;1.77;1.62;;;;;;;13.11;49.94;98789.83;1708573;83;20982;-68
2022/05/23 18:33:07;;;;;;;2.67;1.62;;;;;;;13.04;50.40;98786.75;1730771;81;21424;-68
2022/05/23 18:35:33;;;;;;;2.27;2.00;;;;;;;13.00;50.73;98793.56;1689930;83;21199;-67
2022/05/23 18:38:00;;;;;;;4.40;1.92;;;;;;;12.93;50.92;98799.65;1728981;83;20871;-68
2022/05/23 18:40:27;;;;;;;3.50;2.25;;;;;;;12.85;51.19;98799.27;1694411;83;21015;-66
2022/05/23 18:42:54;;;;;;;5.90;2.55;;;;;;;12.78;51.63;98802.36;1722111;83;21013;-66
2022/05/23 18:45:22;;;;;;;5.25;3.08;;;;;;;12.68;52.05;98807.28;1691179;83;21033;-66
2022/05/23 18:49:41;;;;;;;8.45;4.47;;;;;;;12.57;52.58;98802.73;1714931;83;21141;-66
2022/05/23 18:50:17;;;;;;;19.70;9.58;;;;;;;12.44;53.15;98805.67;1694874;84;21042;-66
2022/05/23 18:52:44;;;;;;;20.30;10.23;;;;;;;12.34;53.49;98807.16;1707856;83;21125;-67
2022/05/23 18:55:13;;;;;;;22.07;12.40;;;;;;;12.23;54.04;98810.85;1716015;83;21085;-67
2022/05/23 18:57:41;;;;;;;22.32;11.57;;;;;;;12.12;54.50;98814.10;1717566;83;20991;-67
2022/05/23 19:00:09;;;;;;;17.27;8.68;;;;;;;12.01;55.03;98821.22;1681755;83;21278;-67
2022/05/23 19:02:38;;;;;;;12.98;7.65;;;;;;;11.90;55.18;98817.56;1715788;82;21478;-67
2022/05/23 19:05:06;;;;;;;11.10;5.45;;;;;;;11.80;55.44;98822.91;1703914;83;20998;-67
2022/05/23 19:07:33;;;;;;;7.47;4.60;;;;;;;11.70;55.85;98829.08;1724276;82;21775;-66
2022/05/23 19:09:59;;;;;;;6.12;4.05;;;;;;;11.61;56.48;98827.81;1717644;83;21037;-67
2022/05/23 19:12:26;;;;;;;5.42;3.27;;;;;;;11.51;57.07;98825.83;1699529;82;21163;-66
2022/05/23 19:14:52;;;;;;;5.03;3.05;;;;;;;11.39;57.67;98833.37;1720026;82;21541;-66
2022/05/23 19:17:20;;;;;;;3.02;2.65;;;;;;;11.30;58.10;98834.34;1718405;83;21711;-66
2022/05/23 19:19:46;;;;;;;5.90;3.45;;;;;;;11.19;58.44;98828.90;1703514;83;21538;-66
2022/05/23 19:22:13;;;;;;;3.85;2.80;;;;;;;11.09;58.83;98837.64;1704658;83;21553;-67
2022/05/23 19:24:41;;;;;;;3.72;2.47;;;;;;;11.02;59.33;98838.88;1652210;85;22197;-66
2022/05/23 19:27:11;;;;;;;4.45;2.67;;;;;;;10.93;59.87;98835.03;1715134;83;21003;-66
2022/05/23 19:29:39;;;;;;;3.72;2.85;;;;;;;10.86;60.30;98836.26;1713235;83;20947;-66
2022/05/23 19:32:07;;;;;;;4.97;3.05;;;;;;;10.79;60.32;98836.19;1711303;83;20995;-65
2022/05/23 19:34:33;;;;;;;5.60;3.67;;;;;;;10.74;60.53;98840.81;1688414;83;21053;-66
2022/05/23 19:37:03;;;;;;;10.68;3.35;;;;;;;10.70;60.83;98843.19;1716922;82;21955;-66
2022/05/23 19:39:35;;;;;;;4.85;3.65;;;;;;;10.64;60.86;98848.23;1713090;83;21149;-66
2022/05/23 19:42:05;;;;;;;5.22;3.67;;;;;;;10.60;61.00;98850.61;1717171;81;21512;-66
2022/05/23 19:44:33;;;;;;;7.05;3.00;;;;;;;10.55;61.32;98853.93;1718827;82;21077;-67
2022/05/23 19:47:01;;;;;;;4.22;2.52;;;;;;;10.50;61.37;98849.87;1718540;82;21006;-67
2022/05/23 19:49:29;;;;;;;2.90;2.58;;;;;;;10.45;61.40;98850.09;1707619;83;21269;-68
2022/05/23 19:51:55;;;;;;;5.65;2.83;;;;;;;10.40;61.52;98853.38;1706292;82;22360;-68
2022/05/23 19:54:22;;;;;;;6.50;2.90;;;;;;;10.35;61.70;98848.90;1695828;82;21070;-67
2022/05/23 19:56:48;;;;;;;5.12;2.70;;;;;;;10.32;62.24;98853.79;1708532;83;21073;-67
2022/05/23 19:59:15;;;;;;;6.10;2.92;;;;;;;10.28;62.82;98855.31;1675312;84;21017;-67
2022/05/23 20:07:17;;;;;;;7.70;4.60;;;;;;;10.18;63.90;98851.47;1655840;84;21081;-67
2022/05/23 20:09:44;;;;;;;9.83;5.55;;;;;;;10.11;64.84;98849.63;1714835;83;21014;-67
2022/05/23 20:12:11;;;;;;;9.48;5.45;;;;;;;10.05;65.45;98850.37;1713674;83;21497;-67
2022/05/23 20:17:23;;;;;;;11.88;6.47;;;;;;;9.91;66.39;98850.59;1722679;83;21532;-66
2022/05/23 20:19:51;;;;;;;15.95;6.33;;;;;;;9.85;66.77;98846.98;1718288;82;21485;-66
2022/05/23 20:22:18;;;;;;;10.23;5.55;;;;;;;9.81;67.22;98851.94;1724979;83;20988;-67
2022/05/23 20:24:45;;;;;;;7.85;5.20;;;;;;;9.79;67.71;98852.95;1721023;82;20994;-67
2022/05/23 20:27:11;;;;;;;8.05;4.40;;;;;;;9.74;68.00;98851.88;1725288;83;21140;-67
2022/05/23 20:29:38;;;;;;;10.53;4.20;;;;;;;9.73;68.09;98855.38;1719548;83;20920;-67
2022/05/23 20:32:07;;;;;;;6.37;4.20;;;;;;;9.73;68.09;98856.69;1730566;83;21015;-67
2022/05/23 20:34:33;;;;;;;6.33;3.60;;;;;;;9.72;68.19;98856.75;1723587;83;21110;-67
2022/05/23 20:37:00;;;;;;;5.65;3.55;;;;;;;9.71;68.37;98856.37;1722829;83;20959;-67
2022/05/23 20:39:26;;;;;;;5.22;3.08;;;;;;;9.68;68.59;98857.34;1700262;83;21136;-67
2022/05/23 20:41:53;;;;;;;4.45;3.05;;;;;;;9.65;68.81;98855.73;1727088;82;21059;-67
2022/05/23 20:44:20;;;;;;;5.78;3.20;;;;;;;9.63;68.93;98860.61;1719961;82;21463;-66
2022/05/23 20:46:48;;;;;;;4.30;2.45;;;;;;;9.59;69.19;98866.40;1694144;82;21058;-66
2022/05/23 20:49:15;;;;;;;5.15;2.95;;;;;;;9.56;69.49;98860.53;1722398;83;21019;-67
2022/05/23 20:51:42;;;;;;;4.42;2.50;;;;;;;9.53;69.82;98858.08;1682091;84;21154;-66
2022/05/23 20:54:09;;;;;;;3.25;2.37;;;;;;;9.51;70.04;98859.91;1690758;83;21398;-67
2022/05/23 20:56:37;;;;;;;6.28;2.83;;;;;;;9.48;70.28;98854.39;1716799;82;21030;-66
2022/05/23 20:59:04;;;;;;;5.35;2.50;;;;;;;9.46;70.54;98857.52;1714161;83;21054;-69
2022/05/23 21:01:30;;;;;;;3.75;2.40;;;;;;;9.45;70.84;98854.98;1712308;83;21419;-66
2022/05/23 21:03:56;;;;;;;2.85;2.62;;;;;;;9.44;71.03;98861.93;1721729;83;21258;-66
2022/05/23 21:06:25;;;;;;;4.35;2.52;;;;;;;9.44;71.22;98861.09;1726576;83;21071;-67
2022/05/23 21:08:51;;;;;;;2.85;2.20;;;;;;;9.44;71.46;98861.09;1720029;83;21111;-68
2022/05/23 21:11:20;;;;;;;3.17;2.67;;;;;;;9.42;71.62;98865.05;1730520;83;21265;-67
2022/05/23 21:13:47;;;;;;;3.83;2.52;;;;;;;9.40;71.83;98865.58;1723510;82;21004;-67
2022/05/23 21:16:14;;;;;;;3.05;2.40;;;;;;;9.37;72.10;98868.34;1719383;82;21253;-68
2022/05/23 21:18:41;;;;;;;3.30;2.42;;;;;;;9.36;72.50;98870.55;1715687;82;20965;-67
2022/05/23 21:21:09;;;;;;;2.60;2.20;;;;;;;9.33;72.85;98870.23;1726748;83;21419;-67
2022/05/23 21:23:36;;;;;;;3.70;2.52;;;;;;;9.33;73.21;98865.49;1713442;82;21037;-67
2022/05/23 21:26:13;;;;;;;4.62;2.75;;;;;;;9.32;73.67;98868.55;1716746;83;21002;-68
2022/05/23 21:28:38;;;;;;;6.40;3.25;;;;;;;9.32;74.10;98869.84;1706873;83;21250;-68
2022/05/23 21:31:04;;;;;;;4.28;3.37;;;;;;;9.32;74.32;98873.73;1725333;81;21023;-66
2022/05/23 21:33:31;;;;;;;5.40;3.15;;;;;;;9.35;74.61;98872.75;1719756;83;21497;-67
2022/05/23 21:35:58;;;;;;;5.05;3.50;;;;;;;9.36;74.84;98867.95;1718351;83;21065;-66
2022/05/23 21:38:25;;;;;;;5.50;4.12;;;;;;;9.39;74.99;98876.90;1723955;82;20926;-66
2022/05/23 21:46:30;;;;;;;5.50;3.05;;;;;;;9.43;75.28;98869.33;1716753;83;21573;-67
2022/05/23 21:48:56;;;;;;;5.12;3.52;;;;;;;9.45;75.50;98866.67;1715970;82;20970;-67
2022/05/23 21:51:24;;;;;;;4.33;3.30;;;;;;;9.45;75.69;98864.91;1730679;83;21051;-67
2022/05/23 21:53:51;;;;;;;3.58;2.85;;;;;;;9.45;75.87;98866.67;1713965;83;22530;-67
2022/05/23 21:56:18;;;;;;;3.67;3.15;;;;;;;9.45;76.04;98866.21;1723959;83;21684;-67
2022/05/23 21:58:46;;;;;;;5.53;3.22;;;;;;;9.46;76.15;98867.05;1715913;83;21556;-67
2022/05/23 22:04:00;;;;;;;2.52;2.33;;;;;;;9.44;76.41;98862.39;1703504;83;21576;-67
2022/05/23 22:06:26;;;;;;;3.27;2.98;;;;;;;9.42;76.58;98855.97;1725619;82;21754;-67
2022/05/23 22:08:55;;;;;;;4.87;2.37;;;;;;;9.39;76.74;98866.97;1711675;83;21092;-67
2022/05/23 22:11:23;;;;;;;6.78;3.08;;;;;;;9.38;76.85;98863.53;1719541;83;21536;-68
2022/05/23 22:13:50;;;;;;;4.83;2.42;;;;;;;9.37;77.07;98861.01;1708867;83;20990;-67
2022/05/23 22:16:17;;;;;;;3.50;3.20;;;;;;;9.34;77.39;98864.58;1713255;83;20957;-67
2022/05/23 22:18:44;;;;;;;4.72;3.02;;;;;;;9.30;77.51;98861.73;1686376;82;21279;-67
2022/05/23 22:21:11;;;;;;;5.67;3.60;;;;;;;9.26;77.66;98863.63;1716757;83;20968;-66
2022/05/23 22:23:37;;;;;;;8.38;3.35;;;;;;;9.22;77.76;98862.08;1715143;83;20954;-67
2022/05/23 22:26:04;;;;;;;3.50;2.80;;;;;;;9.17;78.01;98865.36;1715798;83;21180;-66
2022/05/23 22:28:31;;;;;;;4.22;2.65;;;;;;;9.12;78.24;98866.47;1713372;83;21569;-67
2022/05/23 22:30:59;;;;;;;5.62;2.77;;;;;;;9.06;78.38;98867.58;1715687;83;21249;-66
2022/05/23 22:33:27;;;;;;;5.80;2.37;;;;;;;9.01;78.72;98872.58;1713442;82;21439;-66
2022/05/23 22:35:53;;;;;;;8.55;2.75;;;;;;;8.94;79.02;98861.20;1721052;83;21042;-67
2022/05/23 22:38:20;;;;;;;4.90;2.90;;;;;;;8.89;79.52;98863.59;1726855;83;20962;-66
2022/05/23 22:40:47;;;;;;;6.55;2.77;;;;;;;8.83;79.87;98862.56;1712898;83;21042;-66
2022/05/23 22:43:14;;;;;;;4.33;3.08;;;;;;;8.79;80.25;98868.81;1720878;83;21326;-67
2022/05/23 22:45:41;;;;;;;3.00;2.70;;;;;;;8.72;80.62;98867.39;1722879;83;20940;-66
2022/05/23 22:48:08;;;;;;;8.45;3.17;;;;;;;8.66;81.00;98864.60;1688553;83;20971;-67
2022/05/23 22:50:35;;;;;;;3.10;2.15;;;;;;;8.60;81.37;98865.70;1695465;83;21012;-66
2022/05/23 22:53:01;;;;;;;7.05;2.62;;;;;;;8.54;81.76;98864.69;1717561;83;20959;-67
2022/05/23 22:55:28;;;;;;;4.97;2.70;;;;;;;8.51;82.33;98867.86;1713428;83;21117;-67
2022/05/23 22:57:55;;;;;;;3.87;2.62;;;;;;;8.46;82.65;98870.64;1720532;83;21095;-66
2022/05/23 23:00:23;;;;;;;2.70;2.50;;;;;;;8.44;82.92;98868.56;1727522;82;21010;-66
2022/05/23 23:05:36;;;;;;;5.45;2.70;;;;;;;8.35;83.43;98871.55;1712435;82;21070;-67
2022/05/23 23:08:04;;;;;;;3.15;2.70;;;;;;;8.30;83.72;98873.00;1711096;83;21200;-66
2022/05/23 23:10:34;;;;;;;4.05;3.20;;;;;;;8.27;84.17;98872.28;1721189;82;21046;-67
2022/05/23 23:13:02;;;;;;;4.97;4.10;;;;;;;8.22;84.59;98878.09;1702189;83;21475;-67
2022/05/23 23:15:29;;;;;;;5.85;3.98;;;;;;;8.18;85.00;98883.05;1706599;83;21010;-67
2022/05/23 23:17:56;;;;;;;5.62;4.50;;;;;;;8.15;85.50;98880.13;1700181;83;21019;-68
2022/05/23 23:20:23;;;;;;;9.38;4.60;;;;;;;8.14;85.83;98882.32;1701735;83;21252;-67
2022/05/23 23:22:50;;;;;;;4.85;3.52;;;;;;;8.11;86.27;98885.03;1673165;85;21740;-66